sensor_id;sensor_type;location;lat;lon;timestamp;P1;durP1;ratioP1;P2;durP2;ratioP2
51242;SDS011;76969;47.548;18.730;2024-03-08T07:27:24;7.68;;;3.15;;
51242;SDS011;76969;47.548;18.730;2024-03-08T07:29:50;9.13;;;3.75;;
51242;SDS011;76969;47.548;18.730;2024-03-08T07:32:16;10.60;;;3.97;;
51242;SDS011;76969;47.548;18.730;2024-03-08T07:34:49;9.05;;;4.18;;
51242;SDS011;76969;47.548;18.730;2024-03-08T07:37:16;16.25;;;5.87;;
51242;SDS011;76969;47.548;18.730;2024-03-08T07:39:43;11.77;;;3.95;;
51242;SDS011;76969;47.548;18.730;2024-03-08T07:42:09;10.25;;;4.25;;
51242;SDS011;76969;47.548;18.730;2024-03-08T07:44:36;10.00;;;4.40;;
51242;SDS011;76969;47.548;18.730;2024-03-08T07:47:02;12.02;;;4.78;;
51242;SDS011;76969;47.548;18.730;2024-03-08T07:49:29;13.30;;;4.12;;
51242;SDS011;76969;47.548;18.730;2024-03-08T07:51:56;12.82;;;4.90;;
51242;SDS011;76969;47.548;18.730;2024-03-08T07:54:23;14.48;;;5.30;;
51242;SDS011;76969;47.548;18.730;2024-03-08T07:56:49;13.60;;;6.20;;
51242;SDS011;76969;47.548;18.730;2024-03-08T07:59:16;14.57;;;4.72;;
51242;SDS011;76969;47.548;18.730;2024-03-08T08:01:42;12.32;;;4.40;;
51242;SDS011;76969;47.548;18.730;2024-03-08T08:04:10;16.75;;;5.93;;
51242;SDS011;76969;47.548;18.730;2024-03-08T08:06:40;15.00;;;5.07;;
51242;SDS011;76969;47.548;18.730;2024-03-08T08:09:07;14.85;;;5.37;;
51242;SDS011;76969;47.548;18.730;2024-03-08T08:11:40;15.32;;;5.65;;
51242;SDS011;76969;47.548;18.730;2024-03-08T08:14:09;9.25;;;3.75;;
51242;SDS011;76969;47.548;18.730;2024-03-08T08:16:35;11.85;;;5.70;;
51242;SDS011;76969;47.548;18.730;2024-03-08T08:19:08;16.55;;;5.22;;
51242;SDS011;76969;47.548;18.730;2024-03-08T08:21:34;10.32;;;4.53;;
51242;SDS011;76969;47.548;18.730;2024-03-08T08:24:02;13.30;;;6.07;;
51242;SDS011;76969;47.548;18.730;2024-03-08T08:26:29;10.10;;;3.97;;
51242;SDS011;76969;47.548;18.730;2024-03-08T08:28:55;12.48;;;5.20;;
51242;SDS011;76969;47.548;18.730;2024-03-08T08:31:21;11.35;;;4.78;;
51242;SDS011;76969;47.548;18.730;2024-03-08T08:33:47;11.07;;;5.12;;
51242;SDS011;76969;47.548;18.730;2024-03-08T08:36:17;18.25;;;5.15;;
51242;SDS011;76969;47.548;18.730;2024-03-08T08:38:44;10.25;;;4.25;;
51242;SDS011;76969;47.548;18.730;2024-03-08T08:41:10;11.85;;;3.87;;
51242;SDS011;76969;47.548;18.730;2024-03-08T08:43:36;14.32;;;6.28;;
51242;SDS011;76969;47.548;18.730;2024-03-08T08:46:02;9.75;;;3.80;;
51242;SDS011;76969;47.548;18.730;2024-03-08T08:48:30;12.32;;;4.78;;
51242;SDS011;76969;47.548;18.730;2024-03-08T08:50:56;14.98;;;3.78;;
51242;SDS011;76969;47.548;18.730;2024-03-08T08:53:22;16.10;;;5.65;;
51242;SDS011;76969;47.548;18.730;2024-03-08T08:55:48;12.85;;;4.72;;
51242;SDS011;76969;47.548;18.730;2024-03-08T08:58:13;12.80;;;4.50;;
51242;SDS011;76969;47.548;18.730;2024-03-08T09:00:39;15.57;;;4.37;;
51242;SDS011;76969;47.548;18.730;2024-03-08T09:03:05;12.35;;;3.90;;
51242;SDS011;76969;47.548;18.730;2024-03-08T09:05:34;12.90;;;5.57;;
51242;SDS011;76969;47.548;18.730;2024-03-08T09:08:00;15.45;;;7.12;;
51242;SDS011;76969;47.548;18.730;2024-03-08T09:10:26;12.37;;;4.65;;
51242;SDS011;76969;47.548;18.730;2024-03-08T09:12:53;22.52;;;9.63;;
51242;SDS011;76969;47.548;18.730;2024-03-08T09:15:19;15.80;;;5.47;;
51242;SDS011;76969;47.548;18.730;2024-03-08T09:17:46;20.27;;;6.90;;
51242;SDS011;76969;47.548;18.730;2024-03-08T09:20:13;14.20;;;5.28;;
51242;SDS011;76969;47.548;18.730;2024-03-08T09:22:43;12.82;;;5.95;;
51242;SDS011;76969;47.548;18.730;2024-03-08T09:25:09;13.75;;;5.53;;
51242;SDS011;76969;47.548;18.730;2024-03-08T09:27:35;12.55;;;5.93;;
51242;SDS011;76969;47.548;18.730;2024-03-08T09:30:01;15.90;;;4.72;;
51242;SDS011;76969;47.548;18.730;2024-03-08T09:32:28;15.48;;;4.40;;
51242;SDS011;76969;47.548;18.730;2024-03-08T09:34:54;13.02;;;4.78;;
51242;SDS011;76969;47.548;18.730;2024-03-08T09:37:21;14.40;;;5.65;;
51242;SDS011;76969;47.548;18.730;2024-03-08T09:39:48;14.45;;;5.30;;
51242;SDS011;76969;47.548;18.730;2024-03-08T09:42:15;13.60;;;4.90;;
51242;SDS011;76969;47.548;18.730;2024-03-08T09:44:45;19.20;;;7.03;;
51242;SDS011;76969;47.548;18.730;2024-03-08T09:47:13;13.57;;;5.07;;
51242;SDS011;76969;47.548;18.730;2024-03-08T09:49:40;16.33;;;6.30;;
51242;SDS011;76969;47.548;18.730;2024-03-08T09:52:07;14.00;;;4.93;;
51242;SDS011;76969;47.548;18.730;2024-03-08T09:54:33;15.10;;;4.65;;
51242;SDS011;76969;47.548;18.730;2024-03-08T09:57:00;14.80;;;4.82;;
51242;SDS011;76969;47.548;18.730;2024-03-08T09:59:29;13.32;;;4.40;;
51242;SDS011;76969;47.548;18.730;2024-03-08T10:02:01;16.08;;;5.55;;
51242;SDS011;76969;47.548;18.730;2024-03-08T10:04:31;25.42;;;5.97;;
51242;SDS011;76969;47.548;18.730;2024-03-08T10:06:58;15.80;;;4.60;;
51242;SDS011;76969;47.548;18.730;2024-03-08T10:09:25;14.82;;;5.78;;
51242;SDS011;76969;47.548;18.730;2024-03-08T10:11:56;15.50;;;6.00;;
51242;SDS011;76969;47.548;18.730;2024-03-08T10:14:23;12.15;;;4.68;;
51242;SDS011;76969;47.548;18.730;2024-03-08T10:16:52;15.70;;;5.28;;
51242;SDS011;76969;47.548;18.730;2024-03-08T10:19:18;14.23;;;5.68;;
51242;SDS011;76969;47.548;18.730;2024-03-08T10:21:48;13.48;;;4.15;;
51242;SDS011;76969;47.548;18.730;2024-03-08T10:24:15;15.52;;;5.32;;
51242;SDS011;76969;47.548;18.730;2024-03-08T10:26:41;12.27;;;5.70;;
51242;SDS011;76969;47.548;18.730;2024-03-08T10:29:09;13.05;;;4.80;;
51242;SDS011;76969;47.548;18.730;2024-03-08T10:31:35;15.98;;;4.60;;
51242;SDS011;76969;47.548;18.730;2024-03-08T10:34:01;11.88;;;4.75;;
51242;SDS011;76969;47.548;18.730;2024-03-08T10:36:28;13.70;;;5.70;;
51242;SDS011;76969;47.548;18.730;2024-03-08T10:38:54;15.38;;;5.35;;
51242;SDS011;76969;47.548;18.730;2024-03-08T10:41:25;14.30;;;5.00;;
51242;SDS011;76969;47.548;18.730;2024-03-08T10:46:39;16.25;;;4.45;;
51242;SDS011;76969;47.548;18.730;2024-03-08T10:49:17;9.93;;;4.75;;
51242;SDS011;76969;47.548;18.730;2024-03-08T10:51:43;16.58;;;4.75;;
51242;SDS011;76969;47.548;18.730;2024-03-08T10:54:11;10.40;;;3.83;;
51242;SDS011;76969;47.548;18.730;2024-03-08T10:56:38;11.45;;;4.75;;
51242;SDS011;76969;47.548;18.730;2024-03-08T10:59:06;12.40;;;3.80;;
51242;SDS011;76969;47.548;18.730;2024-03-08T11:01:34;11.48;;;4.30;;
51242;SDS011;76969;47.548;18.730;2024-03-08T11:04:00;15.88;;;5.95;;
51242;SDS011;76969;47.548;18.730;2024-03-08T11:09:02;17.52;;;5.95;;
51242;SDS011;76969;47.548;18.730;2024-03-08T11:11:29;15.23;;;5.95;;
51242;SDS011;76969;47.548;18.730;2024-03-08T11:13:58;14.50;;;5.18;;
51242;SDS011;76969;47.548;18.730;2024-03-08T11:18:52;12.45;;;4.82;;
51242;SDS011;76969;47.548;18.730;2024-03-08T11:21:19;12.02;;;5.05;;
51242;SDS011;76969;47.548;18.730;2024-03-08T11:23:58;14.35;;;5.35;;
51242;SDS011;76969;47.548;18.730;2024-03-08T11:26:31;11.43;;;4.78;;
51242;SDS011;76969;47.548;18.730;2024-03-08T11:34:36;16.35;;;5.97;;
51242;SDS011;76969;47.548;18.730;2024-03-08T11:37:03;16.87;;;7.30;;
51242;SDS011;76969;47.548;18.730;2024-03-08T11:39:30;15.23;;;4.50;;
51242;SDS011;76969;47.548;18.730;2024-03-08T11:41:57;14.55;;;4.75;;
51242;SDS011;76969;47.548;18.730;2024-03-08T11:44:26;11.57;;;4.53;;
51242;SDS011;76969;47.548;18.730;2024-03-08T11:46:53;16.08;;;5.12;;
51242;SDS011;76969;47.548;18.730;2024-03-08T11:49:19;15.68;;;5.53;;
51242;SDS011;76969;47.548;18.730;2024-03-08T11:51:45;12.23;;;4.35;;
51242;SDS011;76969;47.548;18.730;2024-03-08T11:54:12;12.07;;;4.60;;
51242;SDS011;76969;47.548;18.730;2024-03-08T11:56:41;16.52;;;5.55;;
51242;SDS011;76969;47.548;18.730;2024-03-08T11:59:10;13.40;;;4.80;;
51242;SDS011;76969;47.548;18.730;2024-03-08T12:01:38;14.65;;;5.70;;
51242;SDS011;76969;47.548;18.730;2024-03-08T12:04:04;15.43;;;5.22;;
51242;SDS011;76969;47.548;18.730;2024-03-08T12:06:38;10.82;;;4.37;;
51242;SDS011;76969;47.548;18.730;2024-03-08T12:09:08;13.95;;;4.65;;
51242;SDS011;76969;47.548;18.730;2024-03-08T12:11:36;17.70;;;6.25;;
51242;SDS011;76969;47.548;18.730;2024-03-08T12:14:03;13.27;;;5.05;;
51242;SDS011;76969;47.548;18.730;2024-03-08T12:16:29;11.23;;;4.90;;
51242;SDS011;76969;47.548;18.730;2024-03-08T12:18:56;13.20;;;4.65;;
51242;SDS011;76969;47.548;18.730;2024-03-08T12:21:22;13.15;;;4.43;;
51242;SDS011;76969;47.548;18.730;2024-03-08T12:24:03;16.83;;;5.53;;
51242;SDS011;76969;47.548;18.730;2024-03-08T12:26:37;16.55;;;6.45;;
51242;SDS011;76969;47.548;18.730;2024-03-08T12:31:54;14.15;;;5.15;;
51242;SDS011;76969;47.548;18.730;2024-03-08T12:34:23;17.70;;;5.28;;
51242;SDS011;76969;47.548;18.730;2024-03-08T12:36:50;16.98;;;7.50;;
51242;SDS011;76969;47.548;18.730;2024-03-08T12:39:22;15.52;;;5.85;;
51242;SDS011;76969;47.548;18.730;2024-03-08T12:41:55;12.90;;;5.70;;
51242;SDS011;76969;47.548;18.730;2024-03-08T12:44:25;15.63;;;7.60;;
51242;SDS011;76969;47.548;18.730;2024-03-08T12:46:51;11.77;;;5.82;;
51242;SDS011;76969;47.548;18.730;2024-03-08T12:49:19;14.52;;;5.45;;
51242;SDS011;76969;47.548;18.730;2024-03-08T12:51:47;14.07;;;5.90;;
51242;SDS011;76969;47.548;18.730;2024-03-08T12:54:13;16.35;;;5.55;;
51242;SDS011;76969;47.548;18.730;2024-03-08T12:56:39;13.13;;;6.12;;
51242;SDS011;76969;47.548;18.730;2024-03-08T12:59:06;14.15;;;5.57;;
51242;SDS011;76969;47.548;18.730;2024-03-08T13:01:33;14.57;;;4.93;;
51242;SDS011;76969;47.548;18.730;2024-03-08T13:04:03;14.07;;;5.15;;
51242;SDS011;76969;47.548;18.730;2024-03-08T13:06:29;13.65;;;4.78;;
51242;SDS011;76969;47.548;18.730;2024-03-08T13:08:56;17.10;;;5.72;;
51242;SDS011;76969;47.548;18.730;2024-03-08T13:11:23;13.45;;;5.50;;
51242;SDS011;76969;47.548;18.730;2024-03-08T13:13:53;18.52;;;6.30;;
51242;SDS011;76969;47.548;18.730;2024-03-08T13:16:19;14.55;;;6.05;;
51242;SDS011;76969;47.548;18.730;2024-03-08T13:18:46;10.63;;;5.05;;
51242;SDS011;76969;47.548;18.730;2024-03-08T13:21:15;13.95;;;5.43;;
51242;SDS011;76969;47.548;18.730;2024-03-08T13:23:44;15.15;;;5.80;;
51242;SDS011;76969;47.548;18.730;2024-03-08T13:26:15;16.45;;;4.55;;
51242;SDS011;76969;47.548;18.730;2024-03-08T13:28:50;16.67;;;6.05;;
51242;SDS011;76969;47.548;18.730;2024-03-08T13:31:22;14.02;;;4.85;;
51242;SDS011;76969;47.548;18.730;2024-03-08T13:33:48;18.70;;;5.62;;
51242;SDS011;76969;47.548;18.730;2024-03-08T13:36:15;13.95;;;5.60;;
51242;SDS011;76969;47.548;18.730;2024-03-08T13:41:09;11.05;;;4.18;;
51242;SDS011;76969;47.548;18.730;2024-03-08T13:43:36;10.82;;;4.22;;
51242;SDS011;76969;47.548;18.730;2024-03-08T13:46:03;15.77;;;5.15;;
51242;SDS011;76969;47.548;18.730;2024-03-08T13:48:30;11.68;;;5.03;;
51242;SDS011;76969;47.548;18.730;2024-03-08T13:50:57;11.57;;;4.30;;
51242;SDS011;76969;47.548;18.730;2024-03-08T13:53:22;9.98;;;4.72;;
51242;SDS011;76969;47.548;18.730;2024-03-08T13:55:49;11.15;;;4.55;;
51242;SDS011;76969;47.548;18.730;2024-03-08T13:58:16;11.15;;;4.32;;
51242;SDS011;76969;47.548;18.730;2024-03-08T14:00:41;11.52;;;4.15;;
51242;SDS011;76969;47.548;18.730;2024-03-08T14:03:09;11.70;;;3.72;;
51242;SDS011;76969;47.548;18.730;2024-03-08T14:05:42;12.52;;;4.97;;
51242;SDS011;76969;47.548;18.730;2024-03-08T14:08:08;13.33;;;5.73;;
51242;SDS011;76969;47.548;18.730;2024-03-08T14:10:34;12.25;;;5.62;;
51242;SDS011;76969;47.548;18.730;2024-03-08T14:13:03;11.48;;;5.18;;
51242;SDS011;76969;47.548;18.730;2024-03-08T14:15:33;13.20;;;5.62;;
51242;SDS011;76969;47.548;18.730;2024-03-08T14:18:00;10.65;;;5.22;;
51242;SDS011;76969;47.548;18.730;2024-03-08T14:20:27;16.33;;;5.20;;
51242;SDS011;76969;47.548;18.730;2024-03-08T14:22:53;9.18;;;3.87;;
51242;SDS011;76969;47.548;18.730;2024-03-08T14:25:20;14.82;;;4.93;;
51242;SDS011;76969;47.548;18.730;2024-03-08T14:27:49;13.02;;;3.70;;
51242;SDS011;76969;47.548;18.730;2024-03-08T14:30:19;13.90;;;5.12;;
51242;SDS011;76969;47.548;18.730;2024-03-08T14:32:58;15.90;;;4.22;;
51242;SDS011;76969;47.548;18.730;2024-03-08T14:35:25;14.38;;;6.15;;
51242;SDS011;76969;47.548;18.730;2024-03-08T14:37:52;14.87;;;5.32;;
51242;SDS011;76969;47.548;18.730;2024-03-08T14:40:18;14.07;;;5.32;;
51242;SDS011;76969;47.548;18.730;2024-03-08T14:42:48;13.43;;;5.12;;
51242;SDS011;76969;47.548;18.730;2024-03-08T14:45:15;14.90;;;5.53;;
51242;SDS011;76969;47.548;18.730;2024-03-08T14:47:42;12.40;;;4.93;;
51242;SDS011;76969;47.548;18.730;2024-03-08T14:50:08;11.45;;;5.55;;
51242;SDS011;76969;47.548;18.730;2024-03-08T14:52:35;12.15;;;5.97;;
51242;SDS011;76969;47.548;18.730;2024-03-08T14:55:01;9.95;;;3.65;;
51242;SDS011;76969;47.548;18.730;2024-03-08T14:57:28;14.00;;;5.30;;
51242;SDS011;76969;47.548;18.730;2024-03-08T14:59:58;12.45;;;4.40;;
51242;SDS011;76969;47.548;18.730;2024-03-08T15:02:31;16.58;;;6.45;;
51242;SDS011;76969;47.548;18.730;2024-03-08T15:04:59;19.85;;;5.60;;
51242;SDS011;76969;47.548;18.730;2024-03-08T15:07:27;11.45;;;4.50;;
51242;SDS011;76969;47.548;18.730;2024-03-08T15:09:55;12.37;;;5.00;;
51242;SDS011;76969;47.548;18.730;2024-03-08T15:12:22;13.48;;;4.90;;
51242;SDS011;76969;47.548;18.730;2024-03-08T15:14:52;13.65;;;5.53;;
51242;SDS011;76969;47.548;18.730;2024-03-08T15:17:18;12.20;;;5.22;;
51242;SDS011;76969;47.548;18.730;2024-03-08T15:19:47;16.62;;;6.05;;
51242;SDS011;76969;47.548;18.730;2024-03-08T15:22:14;14.05;;;6.20;;
51242;SDS011;76969;47.548;18.730;2024-03-08T15:24:40;12.88;;;5.65;;
51242;SDS011;76969;47.548;18.730;2024-03-08T15:27:08;15.95;;;4.32;;
51242;SDS011;76969;47.548;18.730;2024-03-08T15:29:34;14.70;;;5.50;;
51242;SDS011;76969;47.548;18.730;2024-03-08T15:32:01;13.18;;;4.85;;
51242;SDS011;76969;47.548;18.730;2024-03-08T15:34:29;11.80;;;5.32;;
51242;SDS011;76969;47.548;18.730;2024-03-08T15:36:57;15.45;;;5.85;;
51242;SDS011;76969;47.548;18.730;2024-03-08T15:39:27;13.70;;;4.57;;
51242;SDS011;76969;47.548;18.730;2024-03-08T15:41:53;12.40;;;4.82;;
51242;SDS011;76969;47.548;18.730;2024-03-08T15:44:20;14.18;;;6.10;;
51242;SDS011;76969;47.548;18.730;2024-03-08T15:46:46;15.25;;;5.55;;
51242;SDS011;76969;47.548;18.730;2024-03-08T15:49:12;14.23;;;5.18;;
51242;SDS011;76969;47.548;18.730;2024-03-08T15:51:39;14.55;;;4.85;;
51242;SDS011;76969;47.548;18.730;2024-03-08T15:54:06;14.00;;;5.55;;
51242;SDS011;76969;47.548;18.730;2024-03-08T15:56:33;12.98;;;5.68;;
51242;SDS011;76969;47.548;18.730;2024-03-08T15:59:00;16.05;;;5.22;;
51242;SDS011;76969;47.548;18.730;2024-03-08T16:01:32;13.80;;;4.87;;
51242;SDS011;76969;47.548;18.730;2024-03-08T16:03:58;12.02;;;5.60;;
51242;SDS011;76969;47.548;18.730;2024-03-08T16:06:24;13.02;;;6.45;;
51242;SDS011;76969;47.548;18.730;2024-03-08T16:08:50;13.15;;;4.85;;
51242;SDS011;76969;47.548;18.730;2024-03-08T16:11:19;17.20;;;5.70;;
51242;SDS011;76969;47.548;18.730;2024-03-08T16:13:47;14.80;;;4.82;;
51242;SDS011;76969;47.548;18.730;2024-03-08T16:16:13;13.77;;;5.97;;
51242;SDS011;76969;47.548;18.730;2024-03-08T16:18:39;10.30;;;4.50;;
51242;SDS011;76969;47.548;18.730;2024-03-08T16:21:05;15.35;;;6.40;;
51242;SDS011;76969;47.548;18.730;2024-03-08T16:23:32;12.43;;;5.22;;
51242;SDS011;76969;47.548;18.730;2024-03-08T16:25:58;12.82;;;5.80;;
51242;SDS011;76969;47.548;18.730;2024-03-08T16:28:24;12.88;;;5.47;;
51242;SDS011;76969;47.548;18.730;2024-03-08T16:30:54;17.12;;;6.03;;
51242;SDS011;76969;47.548;18.730;2024-03-08T16:33:23;18.20;;;5.87;;
51242;SDS011;76969;47.548;18.730;2024-03-08T16:35:49;17.00;;;7.55;;
51242;SDS011;76969;47.548;18.730;2024-03-08T16:38:17;27.73;;;12.20;;
51242;SDS011;76969;47.548;18.730;2024-03-08T16:40:44;48.67;;;20.50;;
51242;SDS011;76969;47.548;18.730;2024-03-08T16:43:17;43.35;;;20.30;;
51242;SDS011;76969;47.548;18.730;2024-03-08T16:45:46;29.33;;;14.07;;
51242;SDS011;76969;47.548;18.730;2024-03-08T16:48:13;38.72;;;16.40;;
51242;SDS011;76969;47.548;18.730;2024-03-08T16:50:39;25.05;;;11.80;;
51242;SDS011;76969;47.548;18.730;2024-03-08T16:53:07;17.83;;;8.82;;
51242;SDS011;76969;47.548;18.730;2024-03-08T16:55:33;18.87;;;7.50;;
51242;SDS011;76969;47.548;18.730;2024-03-08T16:58:00;21.17;;;7.12;;
51242;SDS011;76969;47.548;18.730;2024-03-08T17:00:26;17.70;;;6.35;;
51242;SDS011;76969;47.548;18.730;2024-03-08T17:02:58;14.20;;;6.60;;
51242;SDS011;76969;47.548;18.730;2024-03-08T17:05:25;13.02;;;5.82;;
51242;SDS011;76969;47.548;18.730;2024-03-08T17:07:59;15.02;;;4.95;;
51242;SDS011;76969;47.548;18.730;2024-03-08T17:10:27;10.98;;;4.53;;
51242;SDS011;76969;47.548;18.730;2024-03-08T17:12:54;10.38;;;4.72;;
51242;SDS011;76969;47.548;18.730;2024-03-08T17:15:23;13.02;;;4.47;;
51242;SDS011;76969;47.548;18.730;2024-03-08T17:17:52;11.68;;;4.60;;
51242;SDS011;76969;47.548;18.730;2024-03-08T17:20:21;12.55;;;5.07;;
51242;SDS011;76969;47.548;18.730;2024-03-08T17:22:48;12.23;;;4.72;;
51242;SDS011;76969;47.548;18.730;2024-03-08T17:25:21;10.63;;;4.28;;
51242;SDS011;76969;47.548;18.730;2024-03-08T17:27:53;12.98;;;5.75;;
51242;SDS011;76969;47.548;18.730;2024-03-08T17:35:23;10.02;;;4.07;;
51242;SDS011;76969;47.548;18.730;2024-03-08T17:37:52;13.05;;;5.70;;
51242;SDS011;76969;47.548;18.730;2024-03-08T17:40:24;14.10;;;5.80;;
51242;SDS011;76969;47.548;18.730;2024-03-08T17:42:51;15.10;;;5.87;;
51242;SDS011;76969;47.548;18.730;2024-03-08T17:45:19;16.45;;;6.60;;
51242;SDS011;76969;47.548;18.730;2024-03-08T17:47:49;12.75;;;5.22;;
51242;SDS011;76969;47.548;18.730;2024-03-08T17:50:17;9.88;;;4.25;;
51242;SDS011;76969;47.548;18.730;2024-03-08T17:52:44;12.07;;;4.35;;
51242;SDS011;76969;47.548;18.730;2024-03-08T17:55:11;14.80;;;5.93;;
51242;SDS011;76969;47.548;18.730;2024-03-08T17:57:43;14.82;;;3.83;;
51242;SDS011;76969;47.548;18.730;2024-03-08T18:00:14;14.75;;;5.93;;
51242;SDS011;76969;47.548;18.730;2024-03-08T18:02:48;14.90;;;5.32;;
51242;SDS011;76969;47.548;18.730;2024-03-08T18:05:17;13.10;;;4.60;;
51242;SDS011;76969;47.548;18.730;2024-03-08T18:07:43;11.98;;;4.75;;
51242;SDS011;76969;47.548;18.730;2024-03-08T18:10:10;10.52;;;4.55;;
51242;SDS011;76969;47.548;18.730;2024-03-08T18:12:46;12.98;;;4.95;;
51242;SDS011;76969;47.548;18.730;2024-03-08T18:15:22;11.63;;;4.85;;
51242;SDS011;76969;47.548;18.730;2024-03-08T18:17:55;10.68;;;3.95;;
51242;SDS011;76969;47.548;18.730;2024-03-08T18:20:25;13.23;;;5.45;;
51242;SDS011;76969;47.548;18.730;2024-03-08T18:25:32;16.33;;;6.15;;
51242;SDS011;76969;47.548;18.730;2024-03-08T18:28:02;11.80;;;4.93;;
51242;SDS011;76969;47.548;18.730;2024-03-08T18:30:37;15.07;;;6.20;;
51242;SDS011;76969;47.548;18.730;2024-03-08T18:33:04;9.18;;;5.22;;
51242;SDS011;76969;47.548;18.730;2024-03-08T18:35:33;12.05;;;5.78;;
51242;SDS011;76969;47.548;18.730;2024-03-08T18:37:59;10.93;;;5.20;;
51242;SDS011;76969;47.548;18.730;2024-03-08T18:40:26;11.60;;;5.57;;
51242;SDS011;76969;47.548;18.730;2024-03-08T18:42:52;11.52;;;4.85;;
51242;SDS011;76969;47.548;18.730;2024-03-08T18:45:20;19.75;;;5.53;;
51242;SDS011;76969;47.548;18.730;2024-03-08T18:47:48;13.45;;;5.72;;
51242;SDS011;76969;47.548;18.730;2024-03-08T18:50:18;10.52;;;4.85;;
51242;SDS011;76969;47.548;18.730;2024-03-08T18:52:46;14.23;;;5.90;;
51242;SDS011;76969;47.548;18.730;2024-03-08T18:55:15;15.50;;;4.60;;
51242;SDS011;76969;47.548;18.730;2024-03-08T18:57:46;12.23;;;5.07;;
51242;SDS011;76969;47.548;18.730;2024-03-08T19:02:49;10.23;;;3.90;;
51242;SDS011;76969;47.548;18.730;2024-03-08T19:05:16;13.60;;;5.25;;
51242;SDS011;76969;47.548;18.730;2024-03-08T19:07:43;12.27;;;3.72;;
51242;SDS011;76969;47.548;18.730;2024-03-08T19:10:10;10.70;;;4.62;;
51242;SDS011;76969;47.548;18.730;2024-03-08T19:12:47;8.95;;;4.37;;
51242;SDS011;76969;47.548;18.730;2024-03-08T19:15:18;11.20;;;4.07;;
51242;SDS011;76969;47.548;18.730;2024-03-08T19:17:54;14.75;;;5.28;;
51242;SDS011;76969;47.548;18.730;2024-03-08T19:20:21;10.00;;;4.30;;
51242;SDS011;76969;47.548;18.730;2024-03-08T19:22:50;9.18;;;3.78;;
51242;SDS011;76969;47.548;18.730;2024-03-08T19:25:22;12.25;;;5.15;;
51242;SDS011;76969;47.548;18.730;2024-03-08T19:27:54;11.20;;;4.70;;
51242;SDS011;76969;47.548;18.730;2024-03-08T19:30:21;15.70;;;5.72;;
51242;SDS011;76969;47.548;18.730;2024-03-08T19:32:53;11.48;;;4.87;;
51242;SDS011;76969;47.548;18.730;2024-03-08T19:35:22;11.68;;;3.83;;
51242;SDS011;76969;47.548;18.730;2024-03-08T19:37:50;9.32;;;3.97;;
51242;SDS011;76969;47.548;18.730;2024-03-08T19:40:29;13.07;;;5.43;;
51242;SDS011;76969;47.548;18.730;2024-03-08T19:43:01;9.25;;;4.22;;
51242;SDS011;76969;47.548;18.730;2024-03-08T19:45:29;11.40;;;4.78;;
51242;SDS011;76969;47.548;18.730;2024-03-08T19:48:03;11.80;;;4.55;;
51242;SDS011;76969;47.548;18.730;2024-03-08T19:50:32;10.60;;;4.80;;
51242;SDS011;76969;47.548;18.730;2024-03-08T19:52:59;10.48;;;5.00;;
51242;SDS011;76969;47.548;18.730;2024-03-08T19:55:33;14.15;;;4.90;;
51242;SDS011;76969;47.548;18.730;2024-03-08T19:58:00;14.63;;;4.70;;
51242;SDS011;76969;47.548;18.730;2024-03-08T20:00:27;17.75;;;5.25;;
51242;SDS011;76969;47.548;18.730;2024-03-08T20:02:59;17.37;;;5.82;;
51242;SDS011;76969;47.548;18.730;2024-03-08T20:05:27;10.73;;;5.00;;
51242;SDS011;76969;47.548;18.730;2024-03-08T20:07:56;12.80;;;4.47;;
51242;SDS011;76969;47.548;18.730;2024-03-08T20:10:26;12.55;;;5.10;;
51242;SDS011;76969;47.548;18.730;2024-03-08T20:12:52;10.60;;;4.45;;
51242;SDS011;76969;47.548;18.730;2024-03-08T20:15:19;13.93;;;5.28;;
51242;SDS011;76969;47.548;18.730;2024-03-08T20:17:45;13.62;;;4.57;;
51242;SDS011;76969;47.548;18.730;2024-03-08T20:20:14;12.52;;;5.00;;
51242;SDS011;76969;47.548;18.730;2024-03-08T20:22:44;7.82;;;3.17;;
51242;SDS011;76969;47.548;18.730;2024-03-08T20:25:21;13.88;;;4.25;;
51242;SDS011;76969;47.548;18.730;2024-03-08T20:27:49;13.75;;;5.10;;
51242;SDS011;76969;47.548;18.730;2024-03-08T20:30:19;14.38;;;4.93;;
51242;SDS011;76969;47.548;18.730;2024-03-08T20:32:50;11.35;;;5.28;;
51242;SDS011;76969;47.548;18.730;2024-03-08T20:35:20;11.65;;;5.80;;
51242;SDS011;76969;47.548;18.730;2024-03-08T20:37:47;15.38;;;5.60;;
51242;SDS011;76969;47.548;18.730;2024-03-08T20:40:13;12.73;;;5.05;;
51242;SDS011;76969;47.548;18.730;2024-03-08T20:42:40;14.15;;;5.87;;
51242;SDS011;76969;47.548;18.730;2024-03-08T20:45:06;12.05;;;5.50;;
51242;SDS011;76969;47.548;18.730;2024-03-08T20:47:33;12.77;;;4.95;;
51242;SDS011;76969;47.548;18.730;2024-03-08T20:50:04;15.45;;;4.90;;
51242;SDS011;76969;47.548;18.730;2024-03-08T20:52:36;11.23;;;4.65;;
51242;SDS011;76969;47.548;18.730;2024-03-08T20:55:01;13.18;;;4.60;;
51242;SDS011;76969;47.548;18.730;2024-03-08T20:57:39;14.15;;;4.97;;
51242;SDS011;76969;47.548;18.730;2024-03-08T21:05:33;11.23;;;4.25;;
51242;SDS011;76969;47.548;18.730;2024-03-08T21:08:00;12.02;;;4.68;;
51242;SDS011;76969;47.548;18.730;2024-03-08T21:10:26;8.50;;;3.87;;
51242;SDS011;76969;47.548;18.730;2024-03-08T21:12:58;17.12;;;5.43;;
51242;SDS011;76969;47.548;18.730;2024-03-08T21:15:24;12.63;;;4.45;;
51242;SDS011;76969;47.548;18.730;2024-03-08T21:17:51;13.23;;;4.68;;
51242;SDS011;76969;47.548;18.730;2024-03-08T21:20:20;15.57;;;5.90;;
51242;SDS011;76969;47.548;18.730;2024-03-08T21:22:46;15.10;;;5.40;;
51242;SDS011;76969;47.548;18.730;2024-03-08T21:25:13;17.02;;;6.00;;
51242;SDS011;76969;47.548;18.730;2024-03-08T21:27:42;11.50;;;4.07;;
51242;SDS011;76969;47.548;18.730;2024-03-08T21:30:09;13.32;;;4.47;;
51242;SDS011;76969;47.548;18.730;2024-03-08T21:32:38;11.55;;;5.05;;
51242;SDS011;76969;47.548;18.730;2024-03-08T21:35:05;15.65;;;5.00;;
51242;SDS011;76969;47.548;18.730;2024-03-08T21:37:35;14.23;;;5.30;;
51242;SDS011;76969;47.548;18.730;2024-03-08T21:40:02;16.67;;;5.43;;
51242;SDS011;76969;47.548;18.730;2024-03-08T21:42:38;22.98;;;6.62;;
51242;SDS011;76969;47.548;18.730;2024-03-08T21:45:05;10.07;;;4.20;;
51242;SDS011;76969;47.548;18.730;2024-03-08T21:47:32;12.40;;;4.43;;
51242;SDS011;76969;47.548;18.730;2024-03-08T21:50:01;12.43;;;4.65;;
51242;SDS011;76969;47.548;18.730;2024-03-08T21:52:28;12.57;;;4.18;;
51242;SDS011;76969;47.548;18.730;2024-03-08T21:54:59;14.15;;;4.90;;
51242;SDS011;76969;47.548;18.730;2024-03-08T21:57:25;15.73;;;6.78;;
51242;SDS011;76969;47.548;18.730;2024-03-08T21:59:51;12.80;;;5.30;;
51242;SDS011;76969;47.548;18.730;2024-03-08T22:02:21;13.93;;;5.78;;
51242;SDS011;76969;47.548;18.730;2024-03-08T22:04:47;14.27;;;6.50;;
51242;SDS011;76969;47.548;18.730;2024-03-08T22:07:13;12.93;;;5.75;;
51242;SDS011;76969;47.548;18.730;2024-03-08T22:09:38;15.15;;;5.28;;
